Time;durP1;ratioP1;P1;durP2;ratioP2;P2;SDS_P1;SDS_P2;PMS_P1;PMS_P2;Temp;Humidity;BMP_temperature;BMP_pressure;BME280_temperature;BME280_humidity;BME280_pressure;Samples;Min_cycle;Max_cycle;Signal;HPM_P1;HPM_P2
2024/03/20 00:02:04;;;;;;;9.50;5.30;;;6.20;99.90;;;;;;5036784;28;20198;-85
2024/03/20 00:04:32;;;;;;;9.50;5.70;;;6.20;99.90;;;;;;5028439;28;20202;-85
2024/03/20 00:06:59;;;;;;;6.65;4.90;;;6.20;99.90;;;;;;5030762;28;20219;-85
2024/03/20 00:09:26;;;;;;;7.07;5.28;;;6.20;99.90;;;;;;5032939;28;20205;-86
2024/03/20 00:11:53;;;;;;;6.55;4.80;;;6.10;99.90;;;;;;5020819;28;20198;-86
2024/03/20 00:14:20;;;;;;;6.25;4.78;;;6.10;99.90;;;;;;5025424;28;20253;-86
2024/03/20 00:16:48;;;;;;;5.93;4.50;;;6.10;99.90;;;;;;5035035;28;20217;-85
2024/03/20 00:19:15;;;;;;;8.18;5.00;;;6.10;99.90;;;;;;5031787;28;20218;-85
2024/03/20 00:21:45;;;;;;;8.55;4.82;;;6.00;99.90;;;;;;5029973;28;20241;-85
2024/03/20 00:24:12;;;;;;;7.72;4.45;;;6.00;99.90;;;;;;5036181;28;20217;-85
2024/03/20 00:26:39;;;;;;;7.82;4.20;;;6.00;99.90;;;;;;5034707;28;20208;-85
2024/03/20 00:29:08;;;;;;;7.65;4.97;;;6.00;99.90;;;;;;5031459;28;20226;-85
2024/03/20 00:31:35;;;;;;;6.20;4.47;;;6.00;99.90;;;;;;5031122;28;20227;-85
2024/03/20 00:34:02;;;;;;;4.60;3.88;;;5.90;99.90;;;;;;5030620;28;20191;-85
2024/03/20 00:36:30;;;;;;;6.70;5.13;;;5.90;99.90;;;;;;5030235;28;20282;-85
2024/03/20 00:38:59;;;;;;;7.63;5.07;;;5.80;99.90;;;;;;5030591;28;20206;-85
2024/03/20 00:41:26;;;;;;;5.10;4.50;;;5.80;99.90;;;;;;5039253;28;20202;-84
2024/03/20 00:43:52;;;;;;;6.93;4.50;;;5.80;99.90;;;;;;5031759;28;20226;-85
2024/03/20 00:46:20;;;;;;;5.82;4.63;;;5.80;99.90;;;;;;5027838;28;20225;-85
2024/03/20 00:48:47;;;;;;;5.47;4.47;;;5.80;99.90;;;;;;5024870;28;20248;-84
2024/03/20 00:51:14;;;;;;;6.55;4.68;;;5.80;99.90;;;;;;5032081;28;20202;-85
2024/03/20 00:53:41;;;;;;;7.85;4.72;;;5.80;99.90;;;;;;5033696;28;20256;-85
2024/03/20 00:56:09;;;;;;;5.70;4.40;;;5.80;99.90;;;;;;5034024;28;20202;-85
2024/03/20 00:58:36;;;;;;;7.82;4.60;;;5.70;99.90;;;;;;5039611;28;20199;-85
2024/03/20 01:01:03;;;;;;;6.13;4.07;;;5.60;99.90;;;;;;5032178;28;20226;-85
2024/03/20 01:03:29;;;;;;;6.53;4.28;;;5.60;99.90;;;;;;5031207;28;20207;-85
2024/03/20 01:05:56;;;;;;;5.25;4.00;;;5.60;99.90;;;;;;5027012;28;20191;-86
2024/03/20 01:08:23;;;;;;;8.27;3.97;;;5.50;99.90;;;;;;5014819;28;20195;-85
2024/03/20 01:10:50;;;;;;;4.97;3.85;;;5.50;99.90;;;;;;5035628;28;20213;-85
2024/03/20 01:13:19;;;;;;;5.87;4.07;;;5.50;99.90;;;;;;5033370;28;20194;-84
2024/03/20 01:15:46;;;;;;;6.33;4.30;;;5.60;99.90;;;;;;5037756;28;20194;-85
2024/03/20 01:18:12;;;;;;;5.83;4.40;;;5.50;99.90;;;;;;5038011;28;20206;-85
2024/03/20 01:20:39;;;;;;;5.17;4.00;;;5.50;99.90;;;;;;5032265;28;20679;-85
2024/03/20 01:23:06;;;;;;;6.00;4.20;;;5.40;99.90;;;;;;5037538;28;20190;-85
2024/03/20 01:25:33;;;;;;;5.77;4.30;;;5.40;99.90;;;;;;5023924;28;20202;-85
2024/03/20 01:28:00;;;;;;;5.17;4.23;;;5.40;99.90;;;;;;5030181;28;20194;-84
2024/03/20 01:30:28;;;;;;;7.87;4.60;;;5.40;99.90;;;;;;5032849;28;20195;-85
2024/03/20 01:32:55;;;;;;;6.13;4.07;;;5.40;99.90;;;;;;5029025;28;20190;-85
2024/03/20 01:35:22;;;;;;;5.53;4.00;;;5.40;99.90;;;;;;5029539;28;20209;-85
2024/03/20 01:37:49;;;;;;;5.40;3.80;;;5.40;99.90;;;;;;5022907;28;20195;-85
2024/03/20 01:40:16;;;;;;;6.60;4.20;;;5.40;99.90;;;;;;5029718;28;20222;-85
2024/03/20 01:42:43;;;;;;;6.07;4.40;;;5.40;99.90;;;;;;5030127;28;20202;-84
2024/03/20 01:45:14;;;;;;;7.93;3.83;;;5.30;99.90;;;;;;5036124;28;20233;-84
2024/03/20 01:47:43;;;;;;;4.47;3.80;;;5.20;99.90;;;;;;5035953;28;20211;-84
2024/03/20 01:50:11;;;;;;;4.67;3.73;;;5.20;99.90;;;;;;5033475;28;20201;-85
2024/03/20 01:52:50;;;;;;;4.37;3.60;;;5.20;99.90;;;;;;5029087;28;20199;-85
2024/03/20 01:55:17;;;;;;;5.27;4.20;;;5.20;99.90;;;;;;5034881;28;20241;-85
2024/03/20 01:57:44;;;;;;;5.43;4.20;;;5.10;99.90;;;;;;5031563;28;20660;-85
2024/03/20 02:00:13;;;;;;;7.10;3.90;;;5.10;99.90;;;;;;5027416;28;20227;-84
2024/03/20 02:02:43;;;;;;;5.57;3.90;;;5.10;99.90;;;;;;5026662;28;20269;-85
2024/03/20 02:05:11;;;;;;;5.43;3.70;;;5.00;99.90;;;;;;5030281;28;20205;-84
2024/03/20 02:07:38;;;;;;;5.83;3.97;;;5.00;99.90;;;;;;5030951;28;20217;-85
2024/03/20 02:10:06;;;;;;;6.57;3.90;;;5.00;99.90;;;;;;5030784;28;20289;-84
2024/03/20 02:12:33;;;;;;;5.17;3.87;;;5.00;99.90;;;;;;5035171;28;20845;-84
2024/03/20 02:15:06;;;;;;;5.63;3.80;;;5.00;99.90;;;;;;5034881;28;20206;-85
2024/03/20 02:17:32;;;;;;;6.00;4.07;;;5.00;99.90;;;;;;5036626;28;20249;-84
2024/03/20 02:20:01;;;;;;;5.03;3.70;;;4.90;99.90;;;;;;5034724;28;20229;-85
2024/03/20 02:22:29;;;;;;;5.23;3.67;;;4.90;99.90;;;;;;5036666;28;20220;-85
2024/03/20 02:24:56;;;;;;;8.30;3.80;;;4.90;99.90;;;;;;5034852;28;20190;-85
2024/03/20 02:27:22;;;;;;;6.33;3.87;;;4.90;99.90;;;;;;5036440;28;20191;-85
2024/03/20 02:29:49;;;;;;;4.10;3.70;;;4.90;99.90;;;;;;5027968;28;20675;-84
2024/03/20 02:32:16;;;;;;;4.73;3.60;;;4.80;99.90;;;;;;5040116;28;20200;-85
2024/03/20 02:34:43;;;;;;;9.37;4.20;;;4.90;99.90;;;;;;5036036;28;20198;-84
2024/03/20 02:37:10;;;;;;;7.20;3.90;;;4.90;99.90;;;;;;5034028;28;20201;-85
2024/03/20 02:39:38;;;;;;;6.07;3.70;;;4.90;99.90;;;;;;5029575;28;20325;-85
2024/03/20 02:42:05;;;;;;;4.43;3.43;;;4.90;99.90;;;;;;5035243;28;20658;-85
2024/03/20 02:44:32;;;;;;;4.77;3.53;;;4.90;99.90;;;;;;5033436;28;20237;-84
2024/03/20 02:47:00;;;;;;;4.10;3.50;;;4.90;99.90;;;;;;5034429;28;20296;-84
2024/03/20 02:49:26;;;;;;;4.80;3.70;;;4.80;99.90;;;;;;5039890;28;20289;-84
2024/03/20 02:51:53;;;;;;;7.27;3.70;;;4.70;99.90;;;;;;5036772;28;20263;-84
2024/03/20 02:54:20;;;;;;;6.57;3.47;;;4.70;99.90;;;;;;5030522;28;20212;-86
2024/03/20 02:56:49;;;;;;;6.07;3.40;;;4.60;99.90;;;;;;5036094;28;20537;-84
2024/03/20 02:59:16;;;;;;;4.93;3.50;;;4.60;99.90;;;;;;5037392;28;20690;-85
2024/03/20 03:01:43;;;;;;;3.70;3.10;;;4.60;99.90;;;;;;5037194;28;20699;-85
2024/03/20 03:04:09;;;;;;;3.97;3.30;;;4.60;99.90;;;;;;5038972;28;20205;-85
2024/03/20 03:06:36;;;;;;;3.27;2.90;;;4.60;99.90;;;;;;5035601;28;20652;-85
2024/03/20 03:09:08;;;;;;;4.37;3.43;;;4.60;99.90;;;;;;5038314;28;20198;-84
2024/03/20 03:11:35;;;;;;;5.27;3.10;;;4.50;99.90;;;;;;5031548;28;20698;-85
2024/03/20 03:14:03;;;;;;;4.63;3.00;;;4.50;99.90;;;;;;5034314;28;20199;-84
2024/03/20 03:16:30;;;;;;;5.30;3.10;;;4.50;99.90;;;;;;5032578;28;20285;-85
2024/03/20 03:18:57;;;;;;;4.30;2.90;;;4.50;99.90;;;;;;5033086;28;20195;-84
2024/03/20 03:21:24;;;;;;;4.27;3.00;;;4.40;99.90;;;;;;5030047;28;20214;-84
2024/03/20 03:23:51;;;;;;;3.87;2.90;;;4.40;99.90;;;;;;5035095;28;20197;-85
2024/03/20 03:26:18;;;;;;;5.97;2.87;;;4.40;99.90;;;;;;5033088;28;20214;-85
2024/03/20 03:28:45;;;;;;;3.57;2.73;;;4.50;99.90;;;;;;5022270;28;20660;-85
2024/03/20 03:31:13;;;;;;;3.83;2.60;;;4.40;99.90;;;;;;5032655;28;20194;-84
2024/03/20 03:33:40;;;;;;;4.60;2.87;;;4.30;99.90;;;;;;5031713;28;20206;-85
2024/03/20 03:36:07;;;;;;;3.47;2.90;;;4.20;99.90;;;;;;5033863;28;20202;-84
2024/03/20 03:38:34;;;;;;;5.27;2.90;;;4.20;99.90;;;;;;5031092;28;21005;-84
2024/03/20 03:41:01;;;;;;;4.50;2.87;;;4.10;99.90;;;;;;5035139;28;20309;-84
2024/03/20 03:43:28;;;;;;;3.20;2.90;;;4.10;99.90;;;;;;5030901;28;20219;-83
2024/03/20 03:45:55;;;;;;;3.90;2.97;;;4.00;99.90;;;;;;5029069;28;20213;-85
2024/03/20 03:48:24;;;;;;;3.60;3.03;;;4.00;99.90;;;;;;5034255;28;20218;-84
2024/03/20 03:50:51;;;;;;;3.20;2.80;;;4.00;99.90;;;;;;5034703;28;20217;-83
2024/03/20 03:53:18;;;;;;;3.23;2.90;;;4.00;99.90;;;;;;5035517;28;20605;-84
2024/03/20 03:55:44;;;;;;;4.67;2.60;;;4.00;99.90;;;;;;5028682;28;20256;-84
2024/03/20 03:58:11;;;;;;;3.80;2.80;;;4.10;99.90;;;;;;5032041;28;20273;-85
2024/03/20 04:00:38;;;;;;;3.07;2.77;;;4.10;99.90;;;;;;5032756;28;20230;-85
2024/03/20 04:03:06;;;;;;;3.27;2.80;;;4.00;99.90;;;;;;5034203;28;20205;-83
2024/03/20 04:05:35;;;;;;;3.00;2.60;;;4.00;99.90;;;;;;5036056;28;20206;-84
2024/03/20 04:08:02;;;;;;;3.10;2.80;;;4.00;99.90;;;;;;5030362;28;20222;-84
2024/03/20 04:10:29;;;;;;;4.97;2.83;;;4.00;99.90;;;;;;5030901;28;20217;-84
2024/03/20 04:12:56;;;;;;;3.63;2.70;;;4.00;99.90;;;;;;5029341;28;20709;-85
2024/03/20 04:15:24;;;;;;;4.63;3.20;;;4.00;99.90;;;;;;5027701;28;20207;-84
2024/03/20 04:17:52;;;;;;;3.73;2.70;;;4.00;99.90;;;;;;5028631;28;21669;-84
2024/03/20 04:20:19;;;;;;;3.10;2.80;;;3.90;99.90;;;;;;5030871;28;20737;-84
2024/03/20 04:22:47;;;;;;;3.53;2.80;;;3.90;99.90;;;;;;5028309;28;20195;-85
2024/03/20 04:25:14;;;;;;;3.07;2.73;;;3.80;99.90;;;;;;5026852;28;20205;-84
2024/03/20 04:27:42;;;;;;;3.60;2.67;;;3.80;99.90;;;;;;5021971;28;20550;-83
2024/03/20 04:30:12;;;;;;;3.10;2.60;;;3.80;99.90;;;;;;5031552;28;20198;-86
2024/03/20 04:32:39;;;;;;;5.17;2.73;;;3.80;99.90;;;;;;5036558;28;20285;-84
2024/03/20 04:35:07;;;;;;;3.70;2.60;;;3.80;99.90;;;;;;5035875;28;20220;-84
2024/03/20 04:37:34;;;;;;;3.83;2.80;;;3.80;99.90;;;;;;5031147;28;20282;-84
2024/03/20 04:40:03;;;;;;;3.67;2.80;;;3.80;99.90;;;;;;5032841;28;20247;-84
2024/03/20 04:42:29;;;;;;;3.40;2.43;;;3.80;99.90;;;;;;5030762;28;20693;-84
2024/03/20 04:44:55;;;;;;;4.73;2.60;;;3.80;99.90;;;;;;5033889;28;20218;-81
2024/03/20 04:47:22;;;;;;;4.67;2.77;;;3.80;99.90;;;;;;5027273;28;20289;-81
2024/03/20 04:49:49;;;;;;;4.40;2.60;;;3.70;99.90;;;;;;5028440;28;20199;-84
2024/03/20 04:52:15;;;;;;;3.20;2.83;;;3.70;99.90;;;;;;5026805;28;20206;-85
2024/03/20 04:54:42;;;;;;;2.93;2.60;;;3.70;99.90;;;;;;5031169;28;20207;-84
2024/03/20 04:57:10;;;;;;;3.73;2.83;;;3.60;99.90;;;;;;5035462;28;20203;-85
2024/03/20 04:59:37;;;;;;;3.30;2.80;;;3.60;99.90;;;;;;5027442;28;20195;-85
2024/03/20 05:02:04;;;;;;;3.20;2.53;;;3.60;99.90;;;;;;5026578;28;20226;-84
2024/03/20 05:04:31;;;;;;;4.13;2.73;;;3.60;99.90;;;;;;5034925;28;20201;-85
2024/03/20 05:06:58;;;;;;;3.03;2.60;;;3.60;99.90;;;;;;5025925;28;20662;-88
2024/03/20 05:09:25;;;;;;;3.47;2.47;;;3.60;99.90;;;;;;5025126;28;20548;-84
2024/03/20 05:11:52;;;;;;;4.67;2.80;;;3.60;99.90;;;;;;5030309;28;20202;-84
2024/03/20 05:14:20;;;;;;;3.90;2.67;;;3.60;99.90;;;;;;5029486;28;20232;-84
2024/03/20 05:16:46;;;;;;;3.07;2.40;;;3.60;99.90;;;;;;5032573;28;20207;-84
2024/03/20 05:19:13;;;;;;;4.17;2.57;;;3.60;99.90;;;;;;5030704;28;20218;-85
2024/03/20 05:21:40;;;;;;;3.80;2.60;;;3.60;99.90;;;;;;5033454;28;20218;-85
2024/03/20 05:24:06;;;;;;;4.33;2.80;;;3.70;99.90;;;;;;5039574;28;20213;-83
2024/03/20 05:26:33;;;;;;;4.47;2.67;;;3.80;99.90;;;;;;5026938;28;20564;-84
2024/03/20 05:28:59;;;;;;;3.40;3.00;;;3.80;99.90;;;;;;5029826;28;20675;-85
2024/03/20 05:31:29;;;;;;;4.00;2.90;;;3.80;99.90;;;;;;5035520;28;20194;-84
2024/03/20 05:33:55;;;;;;;6.50;2.90;;;3.80;99.90;;;;;;5035073;28;20198;-85
2024/03/20 05:36:22;;;;;;;4.60;3.10;;;3.80;99.90;;;;;;5031123;28;20201;-85
2024/03/20 05:38:48;;;;;;;4.57;2.97;;;3.80;99.90;;;;;;5030170;28;20211;-86
2024/03/20 05:41:15;;;;;;;5.00;3.10;;;3.80;99.90;;;;;;5032520;28;20221;-84
2024/03/20 05:43:41;;;;;;;3.13;2.57;;;3.80;99.90;;;;;;5026059;28;20582;-83
2024/03/20 05:46:09;;;;;;;3.27;2.97;;;3.80;99.90;;;;;;5031493;28;20659;-85
2024/03/20 05:48:36;;;;;;;3.83;2.80;;;3.90;99.90;;;;;;5024401;28;20199;-83
2024/03/20 05:51:04;;;;;;;4.40;3.17;;;3.90;99.90;;;;;;5034100;28;20210;-82
2024/03/20 05:53:29;;;;;;;3.03;2.40;;;3.90;99.90;;;;;;5031458;28;20203;-82
2024/03/20 05:55:58;;;;;;;5.63;2.47;;;3.90;99.90;;;;;;5024209;28;20203;-82
2024/03/20 05:58:24;;;;;;;3.50;2.70;;;3.90;99.90;;;;;;5024364;28;20215;-83
2024/03/20 06:00:51;;;;;;;5.70;2.80;;;3.90;99.90;;;;;;5038136;28;20254;-82
2024/03/20 06:03:18;;;;;;;5.33;2.53;;;4.00;99.90;;;;;;5035118;28;20190;-82
2024/03/20 06:05:47;;;;;;;4.73;2.70;;;4.00;99.90;;;;;;5023428;28;20195;-82
2024/03/20 06:08:13;;;;;;;4.63;2.47;;;4.00;99.90;;;;;;5031536;28;20202;-84
2024/03/20 06:10:40;;;;;;;3.27;2.83;;;4.10;99.90;;;;;;5028899;28;20289;-86
2024/03/20 06:13:06;;;;;;;2.60;2.40;;;4.20;99.90;;;;;;5022011;28;20199;-88
2024/03/20 06:15:36;;;;;;;4.30;2.60;;;4.30;99.90;;;;;;5028472;28;20210;-86
2024/03/20 06:18:01;;;;;;;5.93;2.37;;;4.40;99.90;;;;;;5016443;28;20199;-86
2024/03/20 06:20:28;;;;;;;3.20;2.60;;;4.50;99.90;;;;;;5026047;28;20294;-85
2024/03/20 06:22:55;;;;;;;4.60;2.60;;;4.60;99.90;;;;;;5029769;28;20640;-87
2024/03/20 06:25:22;;;;;;;3.13;2.70;;;4.60;99.90;;;;;;5029912;28;20675;-87
2024/03/20 06:27:48;;;;;;;3.20;2.27;;;4.70;99.90;;;;;;5030773;28;20206;-84
2024/03/20 06:30:16;;;;;;;5.20;2.40;;;4.80;99.90;;;;;;5022378;28;20261;-84
2024/03/20 06:32:42;;;;;;;2.80;2.43;;;4.80;99.90;;;;;;5030271;28;20203;-82
2024/03/20 06:35:09;;;;;;;3.83;2.30;;;4.90;99.90;;;;;;5029950;28;20198;-82
2024/03/20 06:37:35;;;;;;;3.50;2.27;;;5.00;99.90;;;;;;5029537;28;20207;-82
2024/03/20 06:40:05;;;;;;;4.90;2.33;;;5.10;99.90;;;;;;5030221;28;20980;-84
2024/03/20 06:42:31;;;;;;;3.47;2.23;;;5.20;99.90;;;;;;5021419;28;20609;-84
2024/03/20 06:44:59;;;;;;;6.83;2.50;;;5.40;99.90;;;;;;5032689;28;20951;-83
2024/03/20 06:47:25;;;;;;;3.83;2.50;;;5.60;99.90;;;;;;5025654;28;20211;-82
2024/03/20 06:49:52;;;;;;;2.95;2.45;;;6.30;99.60;;;;;;5028075;28;21092;-83
2024/03/20 06:52:21;;;;;;;5.32;2.53;;;7.00;98.10;;;;;;5034737;28;20667;-83
2024/03/20 06:54:48;;;;;;;2.30;2.10;;;7.60;95.70;;;;;;5033598;28;20199;-83
2024/03/20 06:57:15;;;;;;;2.28;2.08;;;8.00;94.70;;;;;;5040258;28;20194;-83
2024/03/20 06:59:42;;;;;;;4.80;2.20;;;8.30;93.70;;;;;;5033750;28;20233;-83
2024/03/20 07:02:08;;;;;;;2.58;2.03;;;8.70;91.80;;;;;;5037144;28;20702;-83
2024/03/20 07:04:35;;;;;;;3.20;2.10;;;9.10;90.50;;;;;;5033170;28;20202;-83
2024/03/20 07:07:03;;;;;;;3.88;2.20;;;9.60;90.60;;;;;;5028190;28;20269;-83
2024/03/20 07:09:30;;;;;;;2.63;1.90;;;10.30;81.90;;;;;;5035172;28;20663;-82
2024/03/20 07:11:56;;;;;;;2.58;1.92;;;10.60;75.00;;;;;;5040164;28;20583;-83
2024/03/20 07:14:26;;;;;;;2.72;2.20;;;10.60;73.70;;;;;;5037918;28;20206;-85
2024/03/20 07:16:52;;;;;;;2.15;1.95;;;10.20;76.20;;;;;;5027937;28;20195;-85
2024/03/20 07:19:19;;;;;;;3.28;2.35;;;9.80;80.50;;;;;;5029658;28;20199;-84
2024/03/20 07:21:45;;;;;;;3.92;2.42;;;9.60;82.30;;;;;;5038839;28;20225;-83
2024/03/20 07:24:12;;;;;;;4.03;2.15;;;9.50;83.30;;;;;;5039639;28;20202;-83
2024/03/20 07:26:39;;;;;;;3.88;2.35;;;9.50;85.90;;;;;;5028599;28;20202;-83
2024/03/20 07:29:06;;;;;;;4.40;2.03;;;9.60;86.30;;;;;;5034010;28;20194;-83
2024/03/20 07:31:34;;;;;;;4.63;1.95;;;9.60;85.40;;;;;;5034623;28;20851;-83
2024/03/20 07:34:01;;;;;;;3.15;2.00;;;9.50;87.00;;;;;;5031950;28;20192;-83
2024/03/20 07:36:27;;;;;;;2.72;2.10;;;9.50;88.30;;;;;;5032916;28;20194;-83
2024/03/20 07:38:55;;;;;;;2.80;1.95;;;9.50;90.60;;;;;;5031402;28;20221;-83
2024/03/20 07:41:21;;;;;;;3.30;2.25;;;9.80;88.80;;;;;;5031875;28;20222;-83
2024/03/20 07:43:48;;;;;;;2.45;2.00;;;10.00;85.70;;;;;;5026422;28;20253;-84
2024/03/20 07:46:14;;;;;;;3.35;2.13;;;10.60;82.80;;;;;;5034819;28;20228;-83
2024/03/20 07:48:44;;;;;;;1.92;1.73;;;11.00;74.10;;;;;;5033433;28;20557;-83
2024/03/20 07:51:10;;;;;;;4.32;2.17;;;11.00;74.10;;;;;;5034073;28;21086;-84
2024/03/20 07:53:37;;;;;;;2.50;1.63;;;11.10;74.30;;;;;;5023360;28;20203;-83
2024/03/20 07:56:05;;;;;;;2.05;1.67;;;11.50;74.70;;;;;;5030452;28;20640;-83
2024/03/20 07:58:31;;;;;;;2.17;1.80;;;11.90;56.00;;;;;;5034070;28;20202;-83
2024/03/20 08:00:58;;;;;;;3.33;2.33;;;12.00;55.30;;;;;;5037992;28;20205;-83
2024/03/20 08:03:25;;;;;;;2.03;1.75;;;12.50;51.40;;;;;;5034278;28;20198;-83
2024/03/20 08:05:52;;;;;;;3.95;1.70;;;13.20;48.30;;;;;;5028165;28;20233;-84
2024/03/20 08:08:19;;;;;;;1.92;1.48;;;14.70;35.60;;;;;;5031695;28;20211;-84
2024/03/20 08:10:46;;;;;;;2.72;1.70;;;15.70;25.10;;;;;;5036434;28;20198;-84
2024/03/20 08:13:14;;;;;;;2.22;1.50;;;16.40;23.50;;;;;;5033186;28;20210;-83
2024/03/20 08:15:40;;;;;;;2.40;1.55;;;16.70;20.00;;;;;;5031748;28;20207;-84
2024/03/20 08:18:07;;;;;;;2.47;1.48;;;16.20;20.70;;;;;;5038760;28;20198;-83
2024/03/20 08:20:33;;;;;;;2.53;1.77;;;16.30;20.00;;;;;;5029552;28;20203;-84
2024/03/20 08:23:01;;;;;;;1.95;1.73;;;15.70;21.30;;;;;;5027023;28;20687;-84
2024/03/20 08:25:27;;;;;;;1.85;1.73;;;15.40;22.60;;;;;;5020098;28;20630;-83
2024/03/20 08:27:55;;;;;;;2.78;1.73;;;15.20;24.50;;;;;;5033153;28;20241;-84
2024/03/20 08:30:21;;;;;;;2.20;1.80;;;14.90;23.20;;;;;;5031116;28;20213;-83
2024/03/20 08:32:48;;;;;;;3.83;1.83;;;14.60;27.20;;;;;;5030243;28;20195;-83
2024/03/20 08:35:16;;;;;;;2.28;1.90;;;14.10;27.10;;;;;;5032429;28;20203;-84
2024/03/20 08:37:43;;;;;;;2.63;1.80;;;13.80;27.00;;;;;;5034786;28;20205;-83
2024/03/20 08:40:12;;;;;;;6.40;2.10;;;13.80;26.90;;;;;;5033398;28;20202;-83
2024/03/20 08:42:39;;;;;;;4.10;2.03;;;13.70;26.80;;;;;;5031044;28;20250;-84
2024/03/20 08:45:05;;;;;;;4.50;1.98;;;14.10;27.20;;;;;;5028894;28;20222;-83
2024/03/20 08:47:33;;;;;;;5.78;1.90;;;14.60;27.60;;;;;;5031060;28;20689;-83
2024/03/20 08:49:59;;;;;;;2.17;1.60;;;14.80;25.40;;;;;;5032638;28;20199;-83
2024/03/20 08:52:26;;;;;;;2.85;1.83;;;15.30;24.80;;;;;;5032421;28;20651;-84
2024/03/20 08:54:52;;;;;;;3.25;1.67;;;15.80;25.30;;;;;;5030035;28;20235;-83
2024/03/20 08:57:20;;;;;;;2.17;1.77;;;16.50;22.50;;;;;;5032512;28;20206;-85
2024/03/20 08:59:47;;;;;;;2.90;1.80;;;17.30;19.70;;;;;;5034863;28;20280;-84
2024/03/20 09:02:14;;;;;;;2.92;1.90;;;17.90;18.70;;;;;;5025367;28;20222;-84
2024/03/20 09:04:41;;;;;;;4.30;2.05;;;17.90;18.90;;;;;;5033365;28;20652;-84
2024/03/20 09:07:08;;;;;;;3.50;1.80;;;18.60;18.00;;;;;;5031923;28;20195;-84
2024/03/20 09:09:34;;;;;;;3.15;1.90;;;19.10;15.20;;;;;;5027595;28;20194;-84
2024/03/20 09:12:04;;;;;;;1.55;1.45;;;18.90;16.00;;;;;;5032383;28;20201;-85
2024/03/20 09:14:32;;;;;;;2.75;1.67;;;18.90;18.00;;;;;;5031100;28;21033;-84
2024/03/20 09:16:59;;;;;;;2.03;1.65;;;18.70;16.00;;;;;;5033331;28;20226;-84
2024/03/20 09:19:25;;;;;;;3.08;1.73;;;18.70;18.30;;;;;;5032280;28;20202;-84
2024/03/20 09:21:52;;;;;;;1.67;1.58;;;18.60;17.50;;;;;;5031785;28;20305;-85
2024/03/20 09:24:19;;;;;;;2.90;1.60;;;19.30;16.10;;;;;;5030061;28;20229;-84
2024/03/20 09:26:46;;;;;;;2.08;1.65;;;20.20;13.60;;;;;;5030875;28;20329;-85
2024/03/20 09:29:14;;;;;;;1.75;1.65;;;21.00;11.60;;;;;;5030503;28;20199;-82
2024/03/20 09:31:42;;;;;;;2.60;1.70;;;21.00;11.60;;;;;;5029493;28;20194;-83
2024/03/20 09:34:08;;;;;;;2.42;1.80;;;21.00;11.60;;;;;;5030455;28;20674;-82
2024/03/20 09:36:35;;;;;;;2.10;1.77;;;21.00;11.60;;;;;;5025234;28;20194;-83
2024/03/20 09:39:01;;;;;;;1.73;1.63;;;21.60;11.00;;;;;;5036123;28;20210;-82
2024/03/20 09:41:28;;;;;;;2.95;1.80;;;21.30;11.80;;;;;;5031460;28;20288;-83
2024/03/20 09:43:54;;;;;;;3.30;1.73;;;22.30;10.00;;;;;;5032094;28;20220;-85
2024/03/20 09:46:22;;;;;;;3.25;1.80;;;23.10;9.20;;;;;;5025355;28;20207;-85
2024/03/20 09:48:50;;;;;;;3.80;1.88;;;23.70;6.20;;;;;;5022380;28;20217;-85
2024/03/20 09:51:18;;;;;;;2.50;2.00;;;24.10;5.70;;;;;;5024606;28;20202;-84
2024/03/20 09:53:45;;;;;;;2.30;2.10;;;24.00;7.00;;;;;;5030524;28;20655;-84
2024/03/20 09:56:12;;;;;;;3.70;2.10;;;23.90;3.90;;;;;;5034683;28;20899;-85
2024/03/20 09:58:40;;;;;;;1.98;1.80;;;23.30;3.90;;;;;;5024453;28;20198;-86
2024/03/20 10:01:11;;;;;;;1.70;1.60;;;23.00;6.30;;;;;;5031886;28;20194;-85
2024/03/20 10:03:38;;;;;;;2.05;1.90;;;23.50;6.90;;;;;;5028526;28;20190;-85
2024/03/20 10:06:06;;;;;;;2.33;2.10;;;23.70;3.80;;;;;;5027858;28;20660;-85
2024/03/20 10:08:34;;;;;;;3.72;1.83;;;22.30;5.10;;;;;;5024991;28;20292;-83
2024/03/20 10:11:01;;;;;;;4.35;1.90;;;20.70;7.40;;;;;;5030792;28;20556;-82
2024/03/20 10:13:26;;;;;;;2.00;1.80;;;20.30;9.30;;;;;;5022238;28;20301;-83
2024/03/20 10:16:05;;;;;;;4.45;2.00;;;20.60;9.30;;;;;;5028517;28;20286;-82
2024/03/20 10:18:31;;;;;;;2.17;1.90;;;21.00;8.60;;;;;;5030913;28;20650;-82
2024/03/20 10:20:58;;;;;;;2.28;1.80;;;20.70;7.90;;;;;;5021592;28;20253;-82
2024/03/20 10:23:26;;;;;;;1.98;1.88;;;21.60;10.60;;;;;;5024703;28;20230;-86
2024/03/20 10:25:53;;;;;;;1.63;1.52;;;22.20;7.30;;;;;;5027140;28;20252;-84
2024/03/20 10:28:21;;;;;;;1.73;1.58;;;21.00;8.00;;;;;;5020693;28;20209;-83
2024/03/20 10:30:51;;;;;;;1.80;1.70;;;20.30;9.10;;;;;;5027023;28;20202;-83
2024/03/20 10:33:18;;;;;;;3.00;1.70;;;20.00;10.20;;;;;;5032095;28;20651;-84
2024/03/20 10:35:49;;;;;;;2.00;1.80;;;20.40;11.20;;;;;;5034287;28;20203;-83
2024/03/20 10:38:16;;;;;;;2.08;1.75;;;20.80;10.80;;;;;;5031317;28;20290;-83
2024/03/20 10:40:48;;;;;;;1.77;1.60;;;21.00;9.80;;;;;;5032944;28;20198;-84
2024/03/20 10:43:17;;;;;;;1.80;1.60;;;20.80;8.40;;;;;;5032594;28;20799;-83
2024/03/20 10:45:44;;;;;;;2.08;1.70;;;21.00;8.50;;;;;;5049745;28;20578;-83
2024/03/20 10:48:15;;;;;;;2.55;1.75;;;22.10;7.00;;;;;;5038770;28;20198;-84
2024/03/20 10:50:43;;;;;;;3.13;1.67;;;22.40;6.10;;;;;;5034167;28;20198;-83
2024/03/20 10:53:09;;;;;;;1.73;1.50;;;21.80;7.30;;;;;;5034520;28;20675;-83
2024/03/20 10:55:36;;;;;;;1.83;1.73;;;22.00;7.40;;;;;;5033671;28;20198;-83
2024/03/20 10:58:05;;;;;;;2.67;1.70;;;22.40;5.60;;;;;;5035903;28;20218;-83
2024/03/20 11:00:34;;;;;;;1.80;1.70;;;22.00;5.90;;;;;;5021334;28;20245;-84
2024/03/20 11:03:56;;;;;;;4.40;1.80;;;22.00;7.30;;;;;;5023999;28;20253;-82
2024/03/20 11:06:40;;;;;;;2.28;2.08;;;21.70;7.50;;;;;;5031302;28;20289;-83
2024/03/20 11:09:26;;;;;;;2.58;1.88;;;21.90;6.60;;;;;;5038125;28;20194;-83
2024/03/20 11:11:52;;;;;;;6.68;4.22;;;22.00;6.20;;;;;;5030555;28;20605;-81
2024/03/20 11:14:34;;;;;;;3.08;1.90;;;21.70;5.80;;;;;;5033431;28;20321;-82
2024/03/20 11:17:02;;;;;;;3.88;2.10;;;20.90;6.80;;;;;;5028429;28;20282;-83
2024/03/20 11:19:30;;;;;;;1.63;1.52;;;20.70;6.70;;;;;;5031653;28;20202;-83
2024/03/20 11:21:58;;;;;;;1.80;1.50;;;20.50;6.30;;;;;;5033395;28;20222;-85
2024/03/20 11:24:27;;;;;;;1.65;1.40;;;20.00;7.20;;;;;;5037996;28;20199;-85
2024/03/20 11:26:57;;;;;;;1.40;1.30;;;20.10;7.40;;;;;;5035302;28;20195;-85
2024/03/20 11:29:24;;;;;;;2.47;1.80;;;19.60;8.40;;;;;;5030902;28;20198;-84
2024/03/20 11:31:54;;;;;;;1.50;1.40;;;19.40;8.10;;;;;;5032688;28;20564;-85
2024/03/20 11:34:20;;;;;;;3.83;2.92;;;19.50;8.10;;;;;;5033455;28;20251;-86
2024/03/20 11:36:48;;;;;;;6.63;5.95;;;19.40;8.90;;;;;;5038230;28;20225;-86
2024/03/20 11:39:15;;;;;;;2.13;1.70;;;19.00;10.30;;;;;;5025301;28;20660;-86
2024/03/20 11:41:41;;;;;;;2.45;1.63;;;19.00;8.60;;;;;;5024191;28;20190;-86
2024/03/20 11:44:10;;;;;;;2.30;1.98;;;19.00;8.60;;;;;;5031745;28;20223;-87
2024/03/20 11:46:37;;;;;;;2.17;1.42;;;18.90;10.00;;;;;;5028100;28;20272;-86
2024/03/20 11:49:06;;;;;;;2.00;1.80;;;18.80;8.90;;;;;;5028300;28;20201;-86
2024/03/20 11:51:32;;;;;;;1.75;1.52;;;18.70;9.00;;;;;;5027710;28;20700;-87
2024/03/20 11:54:03;;;;;;;2.42;1.52;;;18.40;9.20;;;;;;5030436;28;20658;-86
2024/03/20 11:56:29;;;;;;;2.05;1.85;;;18.50;9.20;;;;;;5030703;28;20202;-86
2024/03/20 11:58:56;;;;;;;1.20;1.10;;;18.30;8.90;;;;;;5038526;28;20194;-86
2024/03/20 12:01:23;;;;;;;1.73;1.35;;;18.20;7.40;;;;;;5028770;28;20205;-86
2024/03/20 12:03:53;;;;;;;1.73;1.38;;;18.40;7.50;;;;;;5022312;28;20681;-86
2024/03/20 12:06:21;;;;;;;2.50;1.48;;;18.40;8.50;;;;;;5031060;28;20194;-87
2024/03/20 12:08:49;;;;;;;1.67;1.42;;;18.50;10.20;;;;;;5038408;28;20281;-86
2024/03/20 12:11:23;;;;;;;2.00;1.65;;;18.40;9.90;;;;;;5029564;28;20206;-86
2024/03/20 12:13:52;;;;;;;2.63;1.48;;;18.50;10.00;;;;;;5028931;28;20230;-87
2024/03/20 12:16:19;;;;;;;1.50;1.40;;;18.40;9.00;;;;;;5032856;28;20203;-87
2024/03/20 12:18:47;;;;;;;2.50;1.58;;;18.50;10.30;;;;;;5028634;28;20738;-86
2024/03/20 12:21:13;;;;;;;6.15;4.90;;;18.20;9.80;;;;;;5029984;28;20210;-86
2024/03/20 12:23:40;;;;;;;3.38;2.90;;;18.00;9.70;;;;;;5027493;28;20310;-85
2024/03/20 12:26:07;;;;;;;2.95;2.60;;;18.20;9.80;;;;;;5032657;28;20198;-88
2024/03/20 12:28:35;;;;;;;15.85;12.90;;;18.30;9.90;;;;;;5026737;28;20238;-86
2024/03/20 12:31:01;;;;;;;4.22;1.95;;;18.50;10.00;;;;;;5028319;28;20851;-87
2024/03/20 12:33:29;;;;;;;1.98;1.40;;;18.60;10.10;;;;;;5028867;28;20768;-87
2024/03/20 12:35:55;;;;;;;2.47;1.40;;;18.60;10.10;;;;;;5030247;28;20235;-86
2024/03/20 12:38:22;;;;;;;2.38;1.55;;;18.70;9.60;;;;;;5032040;28;20317;-86
2024/03/20 12:40:48;;;;;;;2.58;1.80;;;18.90;8.80;;;;;;5026286;28;20659;-86
2024/03/20 12:43:15;;;;;;;5.03;2.53;;;18.60;10.10;;;;;;5028280;28;20230;-86
2024/03/20 12:45:45;;;;;;;4.95;1.65;;;18.70;10.10;;;;;;5031883;28;20230;-89
2024/03/20 12:48:13;;;;;;;2.63;1.50;;;18.70;10.10;;;;;;5031429;28;20548;-84
2024/03/20 12:50:39;;;;;;;4.43;1.85;;;18.80;10.20;;;;;;5030411;28;20198;-86
2024/03/20 12:53:15;;;;;;;2.45;1.88;;;18.90;10.30;;;;;;5028036;28;20202;-84
2024/03/20 12:55:41;;;;;;;3.20;1.45;;;18.80;10.20;;;;;;5034328;28;20198;-84
2024/03/20 12:58:11;;;;;;;2.70;1.70;;;18.80;10.20;;;;;;5026873;28;20195;-87